WetterOnline ( https://www.wetteronline.ch )

Wetter aktuell Saarburg

Aktuelles Wetter: Trier/Petrisberg (273m)

6-stündlich | Neueste Meldungen
Ortszeit Temperatur Wetter
So, 15.12. 7:00 9.4° C leichter Regen
So, 15.12. 1:00 7.1° C Sprühregen
Sa, 14.12. 19:00 7.0° C leicht bewölkt
Sa, 14.12. 13:00 8.0° C wolkig
Sa, 14.12. 7:00 7.3° C Regen
Sa, 14.12. 1:00 4.2° C bewölkt
Fr, 13.12. 19:00 5.3° C bewölkt
Fr, 13.12. 13:00 5.4° C Sprühregen
Ortszeit Temperatur Wetter
So, 15.12. 11:00 8.0° C bewölkt
So, 15.12. 10:40 7.9° C bewölkt
So, 15.12. 10:30 7.8° C bedeckt
So, 15.12. 10:20 7.8° C bedeckt
So, 15.12. 10:10 7.7° C bewölkt
So, 15.12. 10:00 7.8° C Regen
So, 15.12. 9:50 7.8° C bedeckt
So, 15.12. 9:30 8.4° C Sprühregen
So, 15.12. 9:00 8.6° C Regen
Ortszeit Relative Feuchte Sichtweite
So, 15.12. 7:00 86% 30 km
So, 15.12. 1:00 85% 28 km
Sa, 14.12. 19:00 75% 35 km
Sa, 14.12. 13:00 64% 30 km
Sa, 14.12. 7:00 93% 6 km
Sa, 14.12. 1:00 84% 27 km
Fr, 13.12. 19:00 80% 55 km
Fr, 13.12. 13:00 84% 40 km
Ortszeit Relative Feuchte Sichtweite
So, 15.12. 11:00 81% 65 km
So, 15.12. 10:40 81% -
So, 15.12. 10:30 82% 60 km
So, 15.12. 10:20 82% -
So, 15.12. 10:10 82% -
So, 15.12. 10:00 79% 60 km
So, 15.12. 9:50 79% -
So, 15.12. 9:30 84% 20 km
So, 15.12. 9:00 97% 4.7 km
Ortszeit Niederschlagsmenge Niederschlagsart
So, 15.12. 7:00 3 l/m2 in 12 Std. Regen
So, 15.12. 1:00 0.1 l/m2 in 6 Std. Regen
Sa, 14.12. 19:00 2 l/m2 in 12 Std. Regen
Sa, 14.12. 13:00 2 l/m2 in 6 Std. Regen
Sa, 14.12. 7:00 3 l/m2 in 12 Std. Regen
Sa, 14.12. 1:00 0.1 l/m2 in 6 Std. Regen
Fr, 13.12. 19:00 5 l/m2 in 12 Std. Regen
Fr, 13.12. 13:00 3 l/m2 in 6 Std. Regen
Ortszeit Niederschlagsmenge Niederschlagsart
So, 15.12. 11:00 0.1 l/m2 in 1 Std. Regen
So, 15.12. 10:40 keine Meldung -
So, 15.12. 10:30 0.1 l/m2 in 1 Std. Schneeregen
So, 15.12. 10:20 keine Meldung -
So, 15.12. 10:10 keine Meldung -
So, 15.12. 10:00 2.2 l/m2 in 1 Std. Regenschauer
So, 15.12. 9:50 keine Meldung -
So, 15.12. 9:30 2.2 l/m2 in 1 Std. -
So, 15.12. 9:00 1.0 l/m2 in 1 Std. Regen
Ortszeit Stärke Spitze Richtung
km/h Bft. km/h Grad Sektor
So, 15.12. 7:00 33 5 67 210° SW
So, 15.12. 1:00 14 3 54 190° S
Sa, 14.12. 19:00 33 5 76 220° SW
Sa, 14.12. 13:00 33 5 72 240° SW
Sa, 14.12. 7:00 30 5 63 220° SW
Sa, 14.12. 1:00 31 5 50 200° S
Fr, 13.12. 19:00 28 4 59 240° SW
Fr, 13.12. 13:00 30 5 50 210° SW
Ortszeit Stärke Spitze Richtung
km/h Bft. km/h Grad Sektor
So, 15.12. 11:00 18 3 36 230° SW
So, 15.12. 10:40 18 3 - 240° SW
So, 15.12. 10:30 19 3 37 230° SW
So, 15.12. 10:20 19 3 - 230° SW
So, 15.12. 10:10 22 4 - 230° SW
So, 15.12. 10:00 25 4 68 240° SW
So, 15.12. 9:50 25 4 - 240° SW
So, 15.12. 9:30 33 5 69 260° W
So, 15.12. 9:00 18 3 68 240° SW
Ortszeit Untergrenze Bedeckung Gattung
total tief tief mittel hoch
So, 15.12. 7:00 600 m 7/8 7/8 - - -
So, 15.12. 1:00 450 m 7/8 7/8 - - -
Sa, 14.12. 19:00 870 m 4/8 1/8 - - -
Sa, 14.12. 13:00 900 m 6/8 4/8 - - -
Sa, 14.12. 7:00 330 m 7/8 7/8 - - -
Sa, 14.12. 1:00 450 m 7/8 7/8 - - -
Fr, 13.12. 19:00 600 m 7/8 7/8 - - -
Fr, 13.12. 13:00 480 m 7/8 7/8 - - -
Ortszeit Bedeckungsgrad in Achtel und Wolkenuntergrenze
So, 15.12. 11:00 4(1500m) 7(1800m) 8(7500m)
So, 15.12. 10:40 1(1440m) 7(2100m) 8(7500m)
So, 15.12. 10:30 1(1380m) 8(1800m) 8(2700m)
So, 15.12. 10:20 1(1380m) 8(1800m)
So, 15.12. 10:10 1(1500m) 7(1800m)
So, 15.12. 10:00 3(930m) 7(1500m) 8(1800m)
So, 15.12. 9:50 3(930m) 7(1500m) 8(1800m)
So, 15.12. 9:30 2(240m) 7(780m) 8(1500m)
So, 15.12. 9:00 5(210m) 6(420m) 7(570m)
Ortszeit Luftdruck NN (hPa) Tendenz (hPa in 3 Std.)
So, 15.12. 7:00 999 + 0,8
So, 15.12. 1:00 1001 - 2,2
Sa, 14.12. 19:00 1002 + 2,4
Sa, 14.12. 13:00 998 + 3,7
Sa, 14.12. 7:00 986 + 0,4
Sa, 14.12. 1:00 990 - 0,5
Fr, 13.12. 19:00 988 + 5,5
Fr, 13.12. 13:00 979 + 2,6
Ortszeit Luftdruck NN (hPa) Tendenz (hPa in 3 Std.)
So, 15.12. 11:00 1004 + 4,1
So, 15.12. 10:40 1004 keine Meldung
So, 15.12. 10:30 1003 + 3,7
So, 15.12. 10:20 1003 keine Meldung
So, 15.12. 10:10 1003 keine Meldung
So, 15.12. 10:00 1003 + 3,2
So, 15.12. 9:50 1003 keine Meldung
So, 15.12. 9:30 1002 + 2,5
So, 15.12. 9:00 1001 + 2,0
Ortszeit Schneehöhe (cm)
So, 15.12. 7:00 0
So, 15.12. 1:00 0
Sa, 14.12. 19:00 0
Sa, 14.12. 13:00 0
Sa, 14.12. 7:00 0
Sa, 14.12. 1:00 0
Fr, 13.12. 19:00 0
Fr, 13.12. 13:00 0
Ortszeit Schneehöhe (cm)
So, 15.12. 11:00 0
So, 15.12. 10:40 0
So, 15.12. 10:30 0
So, 15.12. 10:20 0
So, 15.12. 10:10 0
So, 15.12. 10:00 0
So, 15.12. 9:50 0
So, 15.12. 9:30 0
So, 15.12. 9:00 0
Link zu dieser Seite / Seite empfehlen

Das Wetter in ...